Time;durP1;ratioP1;P1;durP2;ratioP2;P2;SDS_P1;SDS_P2;PMS_P1;PMS_P2;Temp;Humidity;BMP_temperature;BMP_pressure;BME280_temperature;BME280_humidity;BME280_pressure;Samples;Min_cycle;Max_cycle;Signal;HPM_P1;HPM_P2
2022/04/04 00:00:09;;;;;;;7.32;3.50;;;;;;;;;;5065544;28;20522;-77
2022/04/04 00:02:35;;;;;;;7.75;3.72;;;;;;;;;;5068223;28;20045;-77
2022/04/04 00:05:01;;;;;;;6.55;3.47;;;;;;;;;;5068728;28;20036;-78
2022/04/04 00:07:27;;;;;;;5.95;3.25;;;;;;;;;;5067412;28;21408;-77
2022/04/04 00:09:54;;;;;;;6.95;3.67;;;;;;;;;;5066198;28;20411;-78
2022/04/04 00:12:20;;;;;;;7.85;3.60;;;;;;;;;;5067112;28;20127;-78
2022/04/04 00:14:47;;;;;;;6.82;3.75;;;;;;;;;;5067302;28;20115;-77
2022/04/04 00:17:13;;;;;;;8.93;4.43;;;;;;;;;;5050383;28;20392;-77
2022/04/04 00:19:39;;;;;;;7.85;3.95;;;;;;;;;;5067314;28;20044;-76
2022/04/04 00:22:06;;;;;;;6.72;3.92;;;;;;;;;;5068182;28;20045;-77
2022/04/04 00:24:32;;;;;;;9.50;4.55;;;;;;;;;;5068501;28;20420;-78
2022/04/04 00:26:58;;;;;;;10.27;4.72;;;;;;;;;;5068231;28;20153;-78
2022/04/04 00:29:25;;;;;;;8.57;4.00;;;;;;;;;;5051520;28;20048;-78
2022/04/04 00:31:51;;;;;;;9.30;4.95;;;;;;;;;;5068131;28;20430;-77
2022/04/04 00:34:17;;;;;;;9.02;4.40;;;;;;;;;;5052008;28;20365;-78
2022/04/04 00:36:44;;;;;;;9.52;4.85;;;;;;;;;;5067762;28;20120;-78
2022/04/04 00:39:11;;;;;;;11.93;4.50;;;;;;;;;;5068403;28;20041;-77
2022/04/04 00:41:37;;;;;;;11.35;4.65;;;;;;;;;;5068416;28;20064;-77
2022/04/04 00:44:04;;;;;;;7.95;4.65;;;;;;;;;;5051726;28;20041;-77
2022/04/04 00:46:30;;;;;;;8.40;4.75;;;;;;;;;;5067813;28;20043;-76
2022/04/04 00:48:56;;;;;;;9.40;4.80;;;;;;;;;;5068300;28;20045;-77
2022/04/04 00:51:22;;;;;;;9.60;5.18;;;;;;;;;;5068113;28;20051;-76
2022/04/04 00:53:48;;;;;;;9.60;4.95;;;;;;;;;;5034454;28;20041;-77
2022/04/04 00:56:14;;;;;;;11.52;5.53;;;;;;;;;;5052003;28;20110;-78
2022/04/04 00:58:40;;;;;;;9.15;5.55;;;;;;;;;;5067871;28;20119;-78
2022/04/04 01:01:07;;;;;;;11.68;5.90;;;;;;;;;;5050949;28;20086;-77
2022/04/04 01:03:33;;;;;;;12.45;6.10;;;;;;;;;;5068040;28;20045;-79
2022/04/04 01:05:59;;;;;;;10.32;5.88;;;;;;;;;;5051070;28;20072;-79
2022/04/04 01:08:25;;;;;;;11.88;6.47;;;;;;;;;;5068015;28;20048;-78
2022/04/04 01:10:51;;;;;;;13.35;6.88;;;;;;;;;;5067990;28;20419;-78
2022/04/04 01:13:17;;;;;;;12.65;7.28;;;;;;;;;;5068056;28;20040;-77
2022/04/04 01:15:44;;;;;;;14.32;8.07;;;;;;;;;;5050678;28;20040;-77
2022/04/04 01:18:10;;;;;;;13.98;8.55;;;;;;;;;;5051275;28;20052;-76
2022/04/04 01:20:37;;;;;;;15.93;8.80;;;;;;;;;;5067987;28;20086;-77
2022/04/04 01:23:04;;;;;;;15.57;9.73;;;;;;;;;;5068329;28;20076;-77
2022/04/04 01:25:32;;;;;;;18.92;9.75;;;;;;;;;;5070184;28;20036;-76
2022/04/04 01:27:59;;;;;;;18.17;10.25;;;;;;;;;;5052539;28;20495;-77
2022/04/04 01:30:25;;;;;;;15.02;10.15;;;;;;;;;;5068049;28;20037;-76
2022/04/04 01:32:52;;;;;;;17.40;10.23;;;;;;;;;;5067642;28;20040;-78
2022/04/04 01:35:22;;;;;;;16.40;11.07;;;;;;;;;;5067736;28;20064;-78
2022/04/04 01:37:48;;;;;;;18.48;12.20;;;;;;;;;;5051193;28;20052;-77
2022/04/04 01:40:15;;;;;;;18.35;11.88;;;;;;;;;;5067768;28;20055;-77
2022/04/04 01:42:42;;;;;;;17.77;11.25;;;;;;;;;;5067989;28;20080;-77
2022/04/04 01:45:09;;;;;;;17.45;10.95;;;;;;;;;;5051283;28;20048;-77
2022/04/04 01:47:35;;;;;;;18.92;11.43;;;;;;;;;;5051287;28;20033;-78
2022/04/04 01:50:01;;;;;;;18.55;10.75;;;;;;;;;;5050937;28;20044;-77
2022/04/04 01:52:28;;;;;;;17.25;10.40;;;;;;;;;;5067869;28;20037;-76
2022/04/04 01:54:54;;;;;;;16.55;10.55;;;;;;;;;;5067331;28;20044;-78
2022/04/04 01:57:20;;;;;;;15.40;10.45;;;;;;;;;;5067678;28;20044;-78
2022/04/04 01:59:46;;;;;;;15.35;10.77;;;;;;;;;;5054694;28;20512;-78
2022/04/04 02:02:12;;;;;;;20.10;11.23;;;;;;;;;;5065554;28;20091;-78
2022/04/04 02:04:39;;;;;;;16.95;9.98;;;;;;;;;;5069968;28;20036;-77
2022/04/04 02:07:08;;;;;;;18.60;11.20;;;;;;;;;;5070290;28;20530;-77
2022/04/04 02:09:34;;;;;;;19.08;11.30;;;;;;;;;;5070978;28;20059;-78
2022/04/04 02:12:01;;;;;;;18.27;10.18;;;;;;;;;;5071131;28;20048;-76
2022/04/04 02:14:27;;;;;;;16.50;10.45;;;;;;;;;;5054308;28;20036;-76
2022/04/04 02:16:53;;;;;;;17.50;10.57;;;;;;;;;;5070978;28;20631;-76
2022/04/04 02:19:19;;;;;;;20.23;11.30;;;;;;;;;;5054186;28;20040;-77
2022/04/04 02:21:45;;;;;;;17.40;10.77;;;;;;;;;;5070488;28;20049;-77
2022/04/04 02:24:12;;;;;;;16.58;9.95;;;;;;;;;;5053780;28;20032;-76
2022/04/04 02:26:38;;;;;;;17.73;10.13;;;;;;;;;;5070929;28;20046;-76
2022/04/04 02:29:04;;;;;;;17.90;11.35;;;;;;;;;;5054356;28;20568;-76
2022/04/04 02:31:31;;;;;;;19.60;11.35;;;;;;;;;;5070732;28;20162;-75
2022/04/04 02:33:57;;;;;;;17.40;11.00;;;;;;;;;;5071065;28;20123;-76
2022/04/04 02:36:23;;;;;;;19.13;11.50;;;;;;;;;;5053488;28;20100;-75
2022/04/04 02:38:49;;;;;;;19.65;11.27;;;;;;;;;;5070277;28;20091;-76
2022/04/04 02:41:15;;;;;;;21.45;11.25;;;;;;;;;;5070304;28;20044;-76
2022/04/04 02:43:42;;;;;;;16.67;10.52;;;;;;;;;;5037331;28;20047;-75
2022/04/04 02:46:11;;;;;;;22.20;12.38;;;;;;;;;;5070465;28;20494;-76
2022/04/04 02:48:37;;;;;;;24.13;12.15;;;;;;;;;;5053858;28;20451;-75
2022/04/04 02:51:03;;;;;;;18.98;11.35;;;;;;;;;;5070163;28;20044;-76
2022/04/04 02:53:29;;;;;;;24.65;12.68;;;;;;;;;;5053800;28;20076;-77
2022/04/04 02:58:40;;;;;;;25.05;12.25;;;;;;;;;;5069467;28;20151;-76
2022/04/04 03:01:06;;;;;;;24.52;11.82;;;;;;;;;;5069364;28;20063;-76
2022/04/04 03:03:32;;;;;;;20.23;11.82;;;;;;;;;;5053559;28;20071;-75
2022/04/04 03:05:58;;;;;;;21.55;10.70;;;;;;;;;;5069685;28;20063;-74
2022/04/04 03:08:24;;;;;;;22.52;11.85;;;;;;;;;;5052570;28;20032;-76
2022/04/04 03:10:50;;;;;;;19.83;11.63;;;;;;;;;;5052693;28;20043;-76
2022/04/04 03:13:16;;;;;;;21.30;11.63;;;;;;;;;;5070060;28;20385;-75
2022/04/04 03:15:42;;;;;;;21.42;12.07;;;;;;;;;;5069707;28;20063;-76
2022/04/04 03:18:08;;;;;;;21.48;12.10;;;;;;;;;;5069485;28;20127;-78
2022/04/04 03:20:35;;;;;;;21.08;11.70;;;;;;;;;;5070001;28;20039;-78
2022/04/04 03:23:02;;;;;;;22.30;11.18;;;;;;;;;;5069424;28;20036;-77
2022/04/04 03:25:28;;;;;;;19.33;11.00;;;;;;;;;;5069526;28;20044;-76
2022/04/04 03:27:55;;;;;;;18.83;11.80;;;;;;;;;;5069102;28;20499;-77
2022/04/04 03:30:22;;;;;;;21.75;11.68;;;;;;;;;;5068854;28;20036;-78
2022/04/04 03:32:49;;;;;;;19.65;11.00;;;;;;;;;;5069469;28;20094;-77
2022/04/04 03:35:16;;;;;;;21.23;11.93;;;;;;;;;;5070334;28;20484;-77
2022/04/04 03:37:43;;;;;;;17.73;11.13;;;;;;;;;;5068944;28;20055;-78
2022/04/04 03:40:12;;;;;;;20.33;10.50;;;;;;;;;;5069243;28;20039;-78
2022/04/04 03:42:38;;;;;;;18.75;10.48;;;;;;;;;;5068831;28;20053;-75
2022/04/04 03:45:05;;;;;;;21.48;11.50;;;;;;;;;;5069339;28;20480;-77
2022/04/04 03:47:32;;;;;;;20.55;10.75;;;;;;;;;;5069260;28;20043;-77
2022/04/04 03:49:59;;;;;;;20.65;10.88;;;;;;;;;;5069019;28;20036;-78
2022/04/04 03:52:28;;;;;;;21.60;11.45;;;;;;;;;;5069086;28;20051;-77
2022/04/04 03:54:54;;;;;;;22.77;11.52;;;;;;;;;;5068834;28;20088;-76
2022/04/04 03:57:21;;;;;;;22.00;10.50;;;;;;;;;;5052575;28;20567;-76
2022/04/04 03:59:47;;;;;;;20.95;10.50;;;;;;;;;;5070090;28;20112;-76
2022/04/04 04:02:14;;;;;;;21.65;11.88;;;;;;;;;;5065531;28;20113;-77
2022/04/04 04:04:41;;;;;;;23.02;11.98;;;;;;;;;;5068457;28;20035;-76
2022/04/04 04:07:10;;;;;;;23.70;12.40;;;;;;;;;;5067893;28;20052;-76
2022/04/04 04:09:37;;;;;;;20.70;12.10;;;;;;;;;;5070341;28;20094;-77
2022/04/04 04:12:04;;;;;;;20.55;11.45;;;;;;;;;;5068485;28;20048;-77
2022/04/04 04:14:30;;;;;;;20.92;11.35;;;;;;;;;;5052513;28;20496;-77
2022/04/04 04:16:56;;;;;;;22.25;12.60;;;;;;;;;;5068322;28;20076;-77
2022/04/04 04:22:06;;;;;;;20.80;12.07;;;;;;;;;;5053470;28;20045;-77
2022/04/04 04:24:32;;;;;;;23.10;11.55;;;;;;;;;;5068801;28;20037;-75
2022/04/04 04:26:59;;;;;;;21.67;12.10;;;;;;;;;;5068376;28;20119;-75
2022/04/04 04:29:25;;;;;;;22.33;12.43;;;;;;;;;;5051882;28;20573;-75
2022/04/04 04:31:51;;;;;;;24.25;12.05;;;;;;;;;;5050900;28;20033;-77
2022/04/04 04:34:17;;;;;;;22.20;11.98;;;;;;;;;;5068367;28;20044;-77
2022/04/04 04:36:43;;;;;;;19.13;11.25;;;;;;;;;;5068140;28;20048;-76
2022/04/04 04:39:10;;;;;;;19.75;11.25;;;;;;;;;;5068148;28;20036;-75
2022/04/04 04:41:36;;;;;;;24.30;12.23;;;;;;;;;;5051586;28;20033;-76
2022/04/04 04:44:05;;;;;;;23.67;12.10;;;;;;;;;;5067870;28;20498;-77
2022/04/04 04:46:31;;;;;;;21.33;12.23;;;;;;;;;;5068078;28;20048;-76
2022/04/04 04:48:57;;;;;;;21.10;12.48;;;;;;;;;;5068027;28;20036;-76
2022/04/04 04:51:23;;;;;;;21.92;11.93;;;;;;;;;;5051262;28;20043;-77
2022/04/04 04:53:50;;;;;;;22.80;12.07;;;;;;;;;;5067870;28;20045;-76
2022/04/04 04:56:16;;;;;;;23.23;11.32;;;;;;;;;;5068252;28;20075;-77
2022/04/04 04:58:42;;;;;;;22.85;12.00;;;;;;;;;;5068531;28;20102;-78
2022/04/04 05:01:08;;;;;;;18.55;11.52;;;;;;;;;;5051491;28;20171;-78
2022/04/04 05:03:34;;;;;;;19.92;11.40;;;;;;;;;;5068149;28;20063;-79
2022/04/04 05:06:00;;;;;;;17.08;10.07;;;;;;;;;;5067722;28;20041;-78
2022/04/04 05:08:27;;;;;;;20.73;10.90;;;;;;;;;;5051697;28;20384;-78
2022/04/04 05:10:53;;;;;;;22.80;11.20;;;;;;;;;;5051215;28;20045;-78
2022/04/04 05:13:19;;;;;;;21.00;11.57;;;;;;;;;;5068073;28;20044;-77
2022/04/04 05:15:45;;;;;;;21.45;10.32;;;;;;;;;;5068026;28;20058;-78
2022/04/04 05:18:11;;;;;;;18.77;9.85;;;;;;;;;;5067641;28;20032;-77
2022/04/04 05:20:38;;;;;;;18.92;9.73;;;;;;;;;;5068188;28;20389;-78
2022/04/04 05:23:04;;;;;;;17.83;9.63;;;;;;;;;;5067332;28;20503;-76
2022/04/04 05:25:30;;;;;;;18.52;9.40;;;;;;;;;;5034241;28;20062;-76
2022/04/04 05:27:57;;;;;;;16.58;9.43;;;;;;;;;;5069164;28;20032;-78
2022/04/04 05:30:23;;;;;;;18.63;9.35;;;;;;;;;;5068043;28;20059;-78
2022/04/04 05:32:49;;;;;;;21.27;10.10;;;;;;;;;;5070183;28;20438;-78
2022/04/04 05:35:17;;;;;;;19.50;10.18;;;;;;;;;;5054776;28;20040;-78
2022/04/04 05:37:45;;;;;;;19.85;10.25;;;;;;;;;;5069055;28;20060;-77
2022/04/04 05:40:11;;;;;;;19.73;10.40;;;;;;;;;;5071686;28;20072;-78
2022/04/04 05:42:37;;;;;;;20.95;10.30;;;;;;;;;;5071562;28;20091;-77
2022/04/04 05:45:04;;;;;;;20.27;10.68;;;;;;;;;;5054863;28;20076;-77
2022/04/04 05:47:30;;;;;;;18.92;9.98;;;;;;;;;;5071782;28;20484;-77
2022/04/04 05:49:56;;;;;;;21.30;10.98;;;;;;;;;;5054653;28;20056;-78
2022/04/04 05:52:25;;;;;;;16.77;9.80;;;;;;;;;;5054850;28;20388;-79
2022/04/04 05:54:55;;;;;;;15.43;8.50;;;;;;;;;;5054535;28;20488;-78
2022/04/04 05:57:22;;;;;;;15.50;7.00;;;;;;;;;;5054897;28;20408;-77
2022/04/04 05:59:48;;;;;;;15.93;6.95;;;;;;;;;;5071022;28;20036;-77
2022/04/04 06:02:14;;;;;;;18.00;10.35;;;;;;;;;;5037343;28;20049;-80
2022/04/04 06:04:40;;;;;;;17.88;11.82;;;;;;;;;;5054477;28;20066;-79
2022/04/04 06:07:06;;;;;;;21.60;12.35;;;;;;;;;;5071137;28;20037;-79
2022/04/04 06:09:32;;;;;;;22.60;12.38;;;;;;;;;;5054595;28;20115;-80
2022/04/04 06:11:58;;;;;;;22.00;12.75;;;;;;;;;;5070761;28;20033;-79
2022/04/04 06:14:24;;;;;;;23.48;12.30;;;;;;;;;;5072488;28;20499;-79
2022/04/04 06:16:50;;;;;;;21.48;11.20;;;;;;;;;;5072849;28;20546;-79
2022/04/04 06:19:17;;;;;;;14.43;6.38;;;;;;;;;;5073503;28;20051;-81
2022/04/04 06:21:43;;;;;;;9.85;6.00;;;;;;;;;;5072340;28;20086;-78
2022/04/04 06:24:10;;;;;;;13.93;5.70;;;;;;;;;;5038057;28;20407;-78
2022/04/04 06:26:36;;;;;;;11.60;5.72;;;;;;;;;;5072422;28;20094;-78
2022/04/04 06:29:03;;;;;;;14.02;6.13;;;;;;;;;;5070422;28;20033;-80
2022/04/04 06:31:29;;;;;;;12.95;5.90;;;;;;;;;;5070382;28;20075;-80
2022/04/04 06:33:55;;;;;;;12.40;5.97;;;;;;;;;;5070788;28;20484;-79
2022/04/04 06:36:23;;;;;;;15.52;7.90;;;;;;;;;;5053694;28;20101;-77
2022/04/04 06:38:50;;;;;;;16.85;8.80;;;;;;;;;;5071941;28;20396;-80
2022/04/04 06:41:16;;;;;;;16.95;8.68;;;;;;;;;;5070518;28;20051;-80
2022/04/04 06:43:42;;;;;;;16.10;8.45;;;;;;;;;;5053012;28;20056;-79
2022/04/04 06:46:08;;;;;;;15.40;7.75;;;;;;;;;;5069944;28;20048;-80
2022/04/04 06:48:34;;;;;;;19.83;7.55;;;;;;;;;;5054059;28;20438;-79
2022/04/04 06:51:01;;;;;;;15.52;6.60;;;;;;;;;;5070124;28;20049;-80
2022/04/04 06:53:27;;;;;;;11.68;5.72;;;;;;;;;;5070733;28;20511;-76
2022/04/04 06:55:54;;;;;;;14.23;6.45;;;;;;;;;;5070128;28;20036;-76
2022/04/04 06:58:21;;;;;;;10.27;6.22;;;;;;;;;;5054162;28;20538;-81
2022/04/04 07:00:47;;;;;;;13.65;6.50;;;;;;;;;;5053787;28;20102;-76
2022/04/04 07:03:13;;;;;;;11.15;6.20;;;;;;;;;;5069906;28;20045;-76
2022/04/04 07:05:40;;;;;;;13.80;6.70;;;;;;;;;;5053735;28;20131;-76
2022/04/04 07:08:06;;;;;;;12.05;7.25;;;;;;;;;;5069941;28;20531;-78
2022/04/04 07:10:33;;;;;;;12.80;7.00;;;;;;;;;;5070199;28;20037;-77
2022/04/04 07:12:59;;;;;;;10.68;6.63;;;;;;;;;;5069046;28;20451;-76
2022/04/04 07:15:25;;;;;;;17.05;7.50;;;;;;;;;;5069401;28;20067;-76
2022/04/04 07:17:51;;;;;;;13.35;7.95;;;;;;;;;;5069629;28;20036;-80
2022/04/04 07:20:19;;;;;;;14.73;7.70;;;;;;;;;;5070340;28;20087;-78
2022/04/04 07:22:45;;;;;;;17.92;9.05;;;;;;;;;;5069831;28;20576;-79
2022/04/04 07:25:11;;;;;;;19.08;8.93;;;;;;;;;;5052916;28;20028;-78
2022/04/04 07:27:41;;;;;;;18.20;9.30;;;;;;;;;;5069661;28;20040;-79
2022/04/04 07:30:12;;;;;;;11.63;7.20;;;;;;;;;;5069190;28;20036;-77
2022/04/04 07:32:38;;;;;;;10.73;7.10;;;;;;;;;;5068791;28;20048;-78
2022/04/04 07:35:05;;;;;;;12.18;6.63;;;;;;;;;;5069038;28;20077;-76
2022/04/04 07:37:31;;;;;;;12.65;7.55;;;;;;;;;;5069169;28;20071;-76
2022/04/04 07:39:58;;;;;;;9.85;5.35;;;;;;;;;;5069149;28;20048;-77
2022/04/04 07:42:24;;;;;;;10.02;5.72;;;;;;;;;;5069067;28;20036;-77
2022/04/04 07:44:50;;;;;;;16.98;7.80;;;;;;;;;;5068925;28;20047;-78
2022/04/04 07:47:17;;;;;;;18.05;8.45;;;;;;;;;;5069373;28;20133;-77
2022/04/04 07:49:43;;;;;;;14.20;7.22;;;;;;;;;;5069142;28;20082;-78
2022/04/04 07:52:09;;;;;;;13.70;7.10;;;;;;;;;;5069204;28;20495;-78
2022/04/04 07:54:35;;;;;;;11.68;7.40;;;;;;;;;;5069027;28;20044;-78
2022/04/04 07:57:01;;;;;;;12.30;6.80;;;;;;;;;;5068240;28;20491;-80
2022/04/04 07:59:27;;;;;;;15.98;7.13;;;;;;;;;;5052412;28;20044;-81
2022/04/04 08:01:54;;;;;;;18.52;8.02;;;;;;;;;;5069224;28;20033;-80
2022/04/04 08:04:20;;;;;;;14.70;7.95;;;;;;;;;;5069148;28;20399;-77
2022/04/04 08:06:46;;;;;;;19.33;7.35;;;;;;;;;;5069136;28;20044;-80
2022/04/04 08:09:12;;;;;;;15.25;7.85;;;;;;;;;;5068480;28;20033;-80
2022/04/04 08:11:38;;;;;;;14.88;7.78;;;;;;;;;;5069593;28;20036;-78
2022/04/04 08:14:08;;;;;;;12.68;7.32;;;;;;;;;;5068235;28;20051;-77
2022/04/04 08:16:34;;;;;;;13.80;6.90;;;;;;;;;;5068960;28;20074;-76
2022/04/04 08:19:01;;;;;;;13.63;7.20;;;;;;;;;;5068655;28;20036;-79
2022/04/04 08:21:27;;;;;;;10.43;6.32;;;;;;;;;;5068795;28;20127;-81
2022/04/04 08:23:53;;;;;;;15.30;6.30;;;;;;;;;;5051820;28;20032;-79
2022/04/04 08:26:19;;;;;;;11.57;6.28;;;;;;;;;;5069105;28;20380;-80
2022/04/04 08:28:45;;;;;;;10.75;5.47;;;;;;;;;;5068453;28;20052;-80
2022/04/04 08:31:12;;;;;;;9.30;5.63;;;;;;;;;;5068620;28;20480;-78
2022/04/04 08:33:38;;;;;;;9.27;4.70;;;;;;;;;;5051972;28;20040;-83
2022/04/04 08:36:05;;;;;;;11.00;5.57;;;;;;;;;;5068318;28;20569;-78
2022/04/04 08:38:31;;;;;;;11.68;5.65;;;;;;;;;;5069723;28;20036;-81
2022/04/04 08:41:03;;;;;;;10.38;5.22;;;;;;;;;;5068681;28;20133;-79
2022/04/04 08:43:34;;;;;;;12.45;5.05;;;;;;;;;;5066638;28;20036;-79
2022/04/04 08:46:01;;;;;;;11.10;4.93;;;;;;;;;;5068172;28;20032;-78
2022/04/04 08:48:29;;;;;;;10.35;4.82;;;;;;;;;;5068763;28;20369;-79
2022/04/04 08:50:56;;;;;;;8.27;4.63;;;;;;;;;;5069479;28;20500;-77
2022/04/04 08:53:23;;;;;;;10.50;5.10;;;;;;;;;;5052486;28;20051;-80
2022/04/04 08:55:49;;;;;;;10.32;4.68;;;;;;;;;;5052213;28;20492;-81
2022/04/04 08:58:15;;;;;;;7.43;4.32;;;;;;;;;;5068041;28;20040;-83
2022/04/04 09:00:41;;;;;;;9.15;4.47;;;;;;;;;;5051544;28;20052;-79
2022/04/04 09:03:09;;;;;;;8.85;4.65;;;;;;;;;;5051082;28;20068;-79
2022/04/04 09:05:49;;;;;;;10.55;4.60;;;;;;;;;;5068117;28;20044;-83
2022/04/04 09:08:15;;;;;;;9.40;4.45;;;;;;;;;;5070402;28;20036;-80
2022/04/04 09:10:43;;;;;;;10.15;4.63;;;;;;;;;;5072253;28;20060;-85
2022/04/04 09:13:19;;;;;;;8.98;4.53;;;;;;;;;;5055498;28;20403;-78
2022/04/04 09:15:49;;;;;;;9.18;4.00;;;;;;;;;;5070567;28;20177;-78
2022/04/04 09:18:15;;;;;;;10.88;4.22;;;;;;;;;;5071964;28;20418;-81
2022/04/04 09:20:51;;;;;;;8.45;4.03;;;;;;;;;;5072136;28;20055;-80
2022/04/04 09:23:18;;;;;;;8.45;3.90;;;;;;;;;;5069973;28;20504;-81
2022/04/04 09:25:44;;;;;;;8.48;3.67;;;;;;;;;;5071893;28;20071;-79
2022/04/04 09:28:18;;;;;;;9.07;4.20;;;;;;;;;;5055350;28;20495;-79
2022/04/04 09:30:45;;;;;;;8.95;3.70;;;;;;;;;;5055455;28;20089;-79
2022/04/04 09:33:14;;;;;;;8.85;4.22;;;;;;;;;;5071555;28;20041;-80
2022/04/04 09:35:47;;;;;;;12.98;3.55;;;;;;;;;;5072002;28;20048;-79
2022/04/04 09:38:14;;;;;;;9.27;3.72;;;;;;;;;;5070168;28;20472;-80
2022/04/04 09:40:40;;;;;;;7.80;3.45;;;;;;;;;;5072091;28;20032;-83
2022/04/04 09:43:06;;;;;;;12.65;4.10;;;;;;;;;;5070969;28;20036;-81
2022/04/04 09:45:33;;;;;;;9.10;4.15;;;;;;;;;;5054898;28;20427;-79
2022/04/04 09:48:04;;;;;;;12.38;4.10;;;;;;;;;;5055043;28;20475;-81
2022/04/04 09:50:30;;;;;;;7.63;3.72;;;;;;;;;;5071535;28;20042;-80
2022/04/04 09:52:57;;;;;;;10.80;4.10;;;;;;;;;;5071270;28;20372;-79
2022/04/04 09:55:34;;;;;;;10.75;4.25;;;;;;;;;;5071329;28;20055;-80
2022/04/04 09:58:02;;;;;;;11.65;4.60;;;;;;;;;;5071144;28;20165;-81
2022/04/04 10:00:28;;;;;;;12.77;4.32;;;;;;;;;;5071550;28;20036;-81
2022/04/04 10:02:58;;;;;;;12.43;4.50;;;;;;;;;;5070989;28;20045;-80
2022/04/04 10:05:25;;;;;;;9.38;4.28;;;;;;;;;;5054712;28;20508;-79
2022/04/04 10:07:55;;;;;;;10.25;4.70;;;;;;;;;;5071520;28;20115;-77
2022/04/04 10:10:21;;;;;;;11.43;4.68;;;;;;;;;;5071611;28;20450;-80
2022/04/04 10:12:49;;;;;;;11.27;4.35;;;;;;;;;;5068908;28;20151;-78
2022/04/04 10:15:15;;;;;;;9.45;4.10;;;;;;;;;;5070755;28;20044;-79
2022/04/04 10:17:42;;;;;;;8.60;4.38;;;;;;;;;;5071339;28;20440;-81
2022/04/04 10:20:11;;;;;;;10.40;4.30;;;;;;;;;;5069500;28;20131;-79
2022/04/04 10:22:37;;;;;;;12.70;5.00;;;;;;;;;;5070734;28;20044;-80
2022/04/04 10:25:04;;;;;;;12.90;5.13;;;;;;;;;;5070936;28;20098;-80
2022/04/04 10:27:30;;;;;;;12.82;4.25;;;;;;;;;;5054781;28;20400;-78
2022/04/04 10:30:03;;;;;;;13.65;5.50;;;;;;;;;;5071938;28;20373;-80
2022/04/04 10:32:30;;;;;;;11.20;4.15;;;;;;;;;;5054041;28;20119;-82
2022/04/04 10:34:57;;;;;;;12.57;4.57;;;;;;;;;;5070541;28;20040;-80
2022/04/04 10:37:28;;;;;;;10.43;4.38;;;;;;;;;;5071898;28;20048;-81
2022/04/04 10:39:55;;;;;;;10.07;4.53;;;;;;;;;;5071873;28;20054;-82
2022/04/04 10:42:27;;;;;;;11.15;4.40;;;;;;;;;;5072036;28;20055;-81
2022/04/04 10:45:15;;;;;;;9.20;4.10;;;;;;;;;;5073758;28;20037;-81
2022/04/04 10:47:44;;;;;;;12.85;4.35;;;;;;;;;;5071710;28;20146;-80
2022/04/04 10:50:18;;;;;;;7.95;4.20;;;;;;;;;;5070403;28;20577;-80
2022/04/04 10:52:45;;;;;;;6.07;3.65;;;;;;;;;;5070386;28;20520;-79
2022/04/04 10:55:27;;;;;;;6.60;3.50;;;;;;;;;;5053464;28;20134;-80
2022/04/04 10:58:13;;;;;;;8.05;3.72;;;;;;;;;;5068318;28;20054;-79
2022/04/04 11:00:58;;;;;;;7.03;3.35;;;;;;;;;;5059724;28;20106;-76
2022/04/04 11:03:30;;;;;;;9.77;3.28;;;;;;;;;;5053626;28;20106;-80
2022/04/04 11:08:58;;;;;;;6.53;3.50;;;;;;;;;;5071370;28;20041;-82
2022/04/04 11:11:41;;;;;;;5.53;2.92;;;;;;;;;;5069735;28;20032;-81
2022/04/04 11:14:07;;;;;;;5.95;3.05;;;;;;;;;;5069010;28;20347;-81
2022/04/04 11:16:52;;;;;;;7.47;2.65;;;;;;;;;;5070945;28;20064;-80
2022/04/04 11:19:18;;;;;;;5.38;2.88;;;;;;;;;;5070048;28;20079;-81
2022/04/04 11:21:46;;;;;;;9.20;3.25;;;;;;;;;;5069800;28;20059;-80
2022/04/04 11:24:14;;;;;;;5.65;2.80;;;;;;;;;;5069277;28;20044;-79
2022/04/04 11:26:40;;;;;;;7.43;2.90;;;;;;;;;;5069627;28;20045;-83
2022/04/04 11:29:09;;;;;;;7.78;2.88;;;;;;;;;;5069629;28;20043;-80
2022/04/04 11:31:47;;;;;;;6.43;2.85;;;;;;;;;;5069711;28;20090;-81
2022/04/04 11:34:14;;;;;;;7.20;2.75;;;;;;;;;;5069264;28;20036;-83
2022/04/04 11:36:43;;;;;;;5.35;2.63;;;;;;;;;;5052933;28;20048;-82
2022/04/04 11:39:10;;;;;;;4.90;2.50;;;;;;;;;;5069017;28;20040;-81
2022/04/04 11:41:36;;;;;;;5.38;2.45;;;;;;;;;;5069642;28;20534;-85
2022/04/04 11:44:04;;;;;;;4.68;2.15;;;;;;;;;;5069042;28;20036;-80
2022/04/04 11:46:30;;;;;;;4.90;2.88;;;;;;;;;;5069641;28;20036;-80
2022/04/04 11:48:57;;;;;;;3.90;2.50;;;;;;;;;;5052953;28;20468;-82
2022/04/04 11:51:26;;;;;;;4.50;2.33;;;;;;;;;;5070502;28;20047;-83
2022/04/04 11:54:09;;;;;;;3.03;2.00;;;;;;;;;;5070753;28;20033;-81
2022/04/04 11:56:35;;;;;;;6.13;2.55;;;;;;;;;;5069276;28;20064;-80
2022/04/04 11:59:04;;;;;;;4.45;2.50;;;;;;;;;;5068984;28;20036;-80
2022/04/04 12:01:34;;;;;;;3.58;2.00;;;;;;;;;;5070253;28;20142;-78
2022/04/04 12:04:01;;;;;;;3.95;2.30;;;;;;;;;;5068605;28;20046;-80
2022/04/04 12:06:31;;;;;;;3.92;2.40;;;;;;;;;;5069028;28;20075;-77
2022/04/04 12:09:03;;;;;;;3.75;2.53;;;;;;;;;;5068303;28;20028;-80
2022/04/04 12:11:29;;;;;;;6.28;2.45;;;;;;;;;;5069968;28;20112;-81
2022/04/04 12:14:00;;;;;;;3.67;2.50;;;;;;;;;;5069763;28;20036;-83
2022/04/04 12:16:27;;;;;;;5.95;2.60;;;;;;;;;;5068570;28;20079;-80
2022/04/04 12:18:59;;;;;;;4.13;2.60;;;;;;;;;;5051884;28;20048;-80
2022/04/04 12:21:25;;;;;;;3.85;2.70;;;;;;;;;;5068211;28;20060;-79
2022/04/04 12:26:37;;;;;;;3.92;2.38;;;;;;;;;;5069773;28;20041;-81
2022/04/04 12:29:09;;;;;;;5.15;2.60;;;;;;;;;;5068150;28;20024;-80
2022/04/04 12:31:35;;;;;;;4.50;2.58;;;;;;;;;;5067975;28;20400;-81
2022/04/04 12:34:04;;;;;;;3.03;2.20;;;;;;;;;;5067972;28;20048;-82
2022/04/04 12:36:38;;;;;;;4.07;2.65;;;;;;;;;;5051469;28;20068;-80
2022/04/04 12:39:05;;;;;;;4.35;2.30;;;;;;;;;;5068073;28;20088;-79
2022/04/04 12:41:41;;;;;;;3.55;2.30;;;;;;;;;;5051522;28;20392;-80
2022/04/04 12:44:07;;;;;;;3.97;2.53;;;;;;;;;;5051392;28;20530;-83
2022/04/04 12:46:35;;;;;;;4.38;2.42;;;;;;;;;;5068301;28;20499;-82
2022/04/04 12:49:11;;;;;;;4.80;2.50;;;;;;;;;;5068180;28;20037;-80
2022/04/04 12:51:38;;;;;;;3.72;2.60;;;;;;;;;;5068104;28;20079;-80
2022/04/04 12:54:04;;;;;;;4.65;2.85;;;;;;;;;;5067949;28;20051;-79
2022/04/04 12:56:46;;;;;;;4.18;2.72;;;;;;;;;;5051849;28;20037;-82
2022/04/04 12:59:12;;;;;;;3.90;2.72;;;;;;;;;;5068415;28;20073;-82
2022/04/04 13:01:39;;;;;;;4.30;2.63;;;;;;;;;;5068537;28;20055;-81
2022/04/04 13:04:21;;;;;;;5.90;3.35;;;;;;;;;;5051267;28;20040;-77
2022/04/04 13:06:50;;;;;;;5.78;3.17;;;;;;;;;;5068636;28;20115;-78
2022/04/04 13:09:24;;;;;;;5.55;3.50;;;;;;;;;;5049485;28;20033;-81
2022/04/04 13:11:50;;;;;;;4.90;3.30;;;;;;;;;;5068148;28;20484;-79
2022/04/04 13:14:16;;;;;;;5.60;3.30;;;;;;;;;;5068681;28;20037;-83
2022/04/04 13:16:43;;;;;;;5.78;3.08;;;;;;;;;;5052035;28;20067;-81
2022/04/04 13:19:13;;;;;;;6.65;3.78;;;;;;;;;;5069178;28;20484;-78
2022/04/04 13:21:41;;;;;;;5.72;3.42;;;;;;;;;;5068216;28;20040;-84
2022/04/04 13:24:07;;;;;;;5.75;3.92;;;;;;;;;;5050696;28;20124;-80
2022/04/04 13:26:34;;;;;;;6.13;3.75;;;;;;;;;;5068424;28;20573;-80
2022/04/04 13:29:00;;;;;;;6.15;4.47;;;;;;;;;;5067795;28;20029;-80
2022/04/04 13:31:26;;;;;;;6.07;4.13;;;;;;;;;;5067644;28;20110;-82
2022/04/04 13:33:55;;;;;;;6.85;4.10;;;;;;;;;;5067984;28;20060;-84
2022/04/04 13:36:22;;;;;;;6.43;4.18;;;;;;;;;;5067942;28;20131;-83
2022/04/04 13:38:52;;;;;;;6.47;4.07;;;;;;;;;;5068283;28;20052;-84
2022/04/04 13:41:19;;;;;;;6.80;4.53;;;;;;;;;;5051313;28;20032;-81
2022/04/04 13:43:45;;;;;;;7.85;4.50;;;;;;;;;;5067737;28;20084;-82
2022/04/04 13:46:11;;;;;;;7.40;4.60;;;;;;;;;;5067788;28;20036;-84
2022/04/04 13:48:38;;;;;;;7.18;4.88;;;;;;;;;;5050907;28;20094;-82
2022/04/04 13:51:04;;;;;;;7.65;4.75;;;;;;;;;;5067224;28;20029;-83
2022/04/04 13:53:30;;;;;;;11.55;5.45;;;;;;;;;;5069467;28;20058;-81
2022/04/04 13:55:57;;;;;;;11.60;5.20;;;;;;;;;;5071401;28;20470;-78
2022/04/04 13:58:23;;;;;;;11.77;6.05;;;;;;;;;;5055915;28;20044;-82
2022/04/04 14:00:49;;;;;;;15.80;7.35;;;;;;;;;;5072819;28;20036;-78
2022/04/04 14:03:15;;;;;;;16.33;7.22;;;;;;;;;;5071401;28;20400;-78
2022/04/04 14:05:43;;;;;;;17.65;7.65;;;;;;;;;;5072581;28;20491;-80
2022/04/04 14:08:12;;;;;;;12.90;7.55;;;;;;;;;;5071083;28;20067;-81
2022/04/04 14:10:40;;;;;;;20.05;7.93;;;;;;;;;;5054721;28;20384;-83
2022/04/04 14:13:06;;;;;;;14.15;6.95;;;;;;;;;;5068475;28;20179;-79
2022/04/04 14:15:32;;;;;;;14.20;7.70;;;;;;;;;;5055153;28;20044;-79
2022/04/04 14:17:58;;;;;;;15.00;7.68;;;;;;;;;;5072669;28;20533;-85
2022/04/04 14:20:24;;;;;;;15.82;7.80;;;;;;;;;;5072489;28;20071;-83
2022/04/04 14:22:50;;;;;;;14.90;6.88;;;;;;;;;;5072827;28;20036;-82
2022/04/04 14:25:17;;;;;;;14.43;7.03;;;;;;;;;;5071688;28;20555;-81
2022/04/04 14:27:43;;;;;;;13.55;6.85;;;;;;;;;;5071154;28;20044;-82
2022/04/04 14:30:09;;;;;;;13.45;7.30;;;;;;;;;;5053788;28;20040;-80
2022/04/04 14:32:35;;;;;;;16.25;7.97;;;;;;;;;;5055238;28;20397;-77
2022/04/04 14:35:01;;;;;;;12.40;6.90;;;;;;;;;;5054314;28;20042;-79
2022/04/04 14:37:28;;;;;;;14.48;7.30;;;;;;;;;;5054047;28;20060;-77
2022/04/04 14:39:54;;;;;;;15.98;8.13;;;;;;;;;;5070412;28;20074;-79
2022/04/04 14:42:20;;;;;;;16.27;8.13;;;;;;;;;;5070699;28;20036;-79